createdAt,value
2018-05-07T00:02:17.866Z,15.50
2018-05-07T00:04:45.378Z,15.30
2018-05-07T00:07:12.978Z,15.10
2018-05-07T00:09:40.488Z,15.10
2018-05-07T00:12:08.002Z,15.00
2018-05-07T00:14:35.518Z,14.90
2018-05-07T00:17:03.062Z,14.80
2018-05-07T00:19:30.628Z,14.80
2018-05-07T00:21:58.166Z,14.70
2018-05-07T00:24:26.468Z,14.60
2018-05-07T00:26:53.999Z,14.60
2018-05-07T00:29:22.312Z,14.40
2018-05-07T00:31:49.858Z,14.40
2018-05-07T00:34:17.382Z,14.40
2018-05-07T00:36:44.947Z,13.90
2018-05-07T00:39:13.240Z,13.50
2018-05-07T00:41:40.788Z,13.50
2018-05-07T00:44:08.339Z,13.60
2018-05-07T00:46:36.626Z,13.50
2018-05-07T00:49:04.945Z,13.50
2018-05-07T00:51:32.478Z,13.50
2018-05-07T00:54:00.019Z,13.20
2018-05-07T00:56:27.600Z,13.30
2018-05-07T00:58:55.140Z,13.30
2018-05-07T01:01:22.691Z,13.20
2018-05-07T01:03:50.240Z,13.10
2018-05-07T01:06:18.522Z,12.80
2018-05-07T01:08:46.811Z,12.70
2018-05-07T01:11:14.335Z,12.70
2018-05-07T01:13:41.882Z,12.50
2018-05-07T01:16:09.435Z,12.80
2018-05-07T01:18:36.984Z,13.00
2018-05-07T01:21:04.510Z,13.00
2018-05-07T01:23:32.061Z,12.90
2018-05-07T01:25:59.632Z,12.60
2018-05-07T01:28:27.153Z,12.80
2018-05-07T01:30:54.694Z,12.50
2018-05-07T01:33:22.247Z,12.50
2018-05-07T01:35:49.802Z,12.70
2018-05-07T01:38:17.331Z,12.50
2018-05-07T01:40:44.844Z,12.50
2018-05-07T01:43:12.362Z,12.50
2018-05-07T01:45:39.922Z,12.30
2018-05-07T01:48:07.448Z,12.30
2018-05-07T01:50:34.988Z,12.50
2018-05-07T01:53:03.305Z,12.50
2018-05-07T01:55:30.851Z,12.50
2018-05-07T01:57:58.450Z,12.50
2018-05-07T02:00:25.971Z,12.50
2018-05-07T02:02:53.523Z,12.50
2018-05-07T02:05:21.053Z,12.30
2018-05-07T02:07:48.591Z,12.20
2018-05-07T02:10:16.147Z,12.00
2018-05-07T02:12:43.702Z,12.10
2018-05-07T02:15:11.268Z,12.10
2018-05-07T02:17:39.566Z,12.10
2018-05-07T02:20:07.113Z,12.10
2018-05-07T02:22:35.433Z,12.20
2018-05-07T02:25:02.994Z,12.20
2018-05-07T02:27:30.535Z,12.20
2018-05-07T02:29:58.058Z,12.20
2018-05-07T02:32:25.582Z,12.00
2018-05-07T02:34:53.140Z,11.70
2018-05-07T02:37:20.695Z,11.50
2018-05-07T02:39:48.237Z,11.50
2018-05-07T02:42:15.796Z,11.50
2018-05-07T02:44:43.315Z,11.80
2018-05-07T02:47:10.845Z,11.80
2018-05-07T02:49:38.370Z,11.70
2018-05-07T02:52:05.882Z,11.60
2018-05-07T02:54:33.475Z,11.60
2018-05-07T02:57:01.032Z,11.50
2018-05-07T02:59:28.583Z,11.40
2018-05-07T03:01:56.115Z,11.50
2018-05-07T03:04:23.636Z,11.50
2018-05-07T03:06:51.201Z,11.20
2018-05-07T03:09:18.748Z,11.10
2018-05-07T03:11:46.289Z,11.00
2018-05-07T03:14:13.826Z,11.10
2018-05-07T03:16:42.109Z,11.30
2018-05-07T03:19:10.386Z,11.00
2018-05-07T03:21:38.700Z,11.20
2018-05-07T03:24:06.252Z,11.10
2018-05-07T03:26:33.790Z,11.20
2018-05-07T03:29:02.098Z,11.30
2018-05-07T03:31:29.622Z,11.20
2018-05-07T03:33:57.151Z,11.30
2018-05-07T03:36:24.707Z,11.10
2018-05-07T03:38:52.226Z,11.10
2018-05-07T03:41:20.275Z,11.10
2018-05-07T03:43:47.792Z,10.90
2018-05-07T03:46:15.349Z,10.90
2018-05-07T03:48:42.937Z,10.40
2018-05-07T03:51:11.243Z,10.00
2018-05-07T03:53:38.758Z,10.00
2018-05-07T03:56:06.266Z,9.90
2018-05-07T03:58:33.803Z,9.80
2018-05-07T04:01:01.325Z,10.00
2018-05-07T04:03:28.829Z,10.20
2018-05-07T04:05:56.371Z,10.40
2018-05-07T04:08:24.658Z,10.50
2018-05-07T04:10:53.068Z,10.50
2018-05-07T04:13:20.620Z,10.60
2018-05-07T04:15:48.183Z,10.60
2018-05-07T04:18:27.474Z,10.60
2018-05-07T04:21:06.887Z,10.50
2018-05-07T04:23:46.111Z,10.50
2018-05-07T04:26:13.664Z,10.30
2018-05-07T04:28:41.211Z,10.00
2018-05-07T04:31:08.737Z,10.10
2018-05-07T04:33:36.285Z,10.00
2018-05-07T04:36:03.834Z,10.30
2018-05-07T04:38:31.394Z,10.30
2018-05-07T04:40:59.679Z,10.20
2018-05-07T04:43:27.951Z,10.50
2018-05-07T04:45:56.234Z,10.40
2018-05-07T04:48:23.782Z,10.40
2018-05-07T04:50:52.082Z,10.60
2018-05-07T04:53:19.606Z,10.60
2018-05-07T04:55:47.195Z,10.70
2018-05-07T04:58:14.773Z,10.40
2018-05-07T05:00:42.331Z,10.60
2018-05-07T05:03:09.863Z,10.60
2018-05-07T05:05:38.179Z,11.00
2018-05-07T05:08:05.700Z,11.00
2018-05-07T05:10:33.226Z,11.00
2018-05-07T05:13:00.752Z,11.10
2018-05-07T05:15:30.283Z,11.10
2018-05-07T05:17:57.804Z,11.20
2018-05-07T05:20:25.326Z,11.40
2018-05-07T05:22:53.646Z,11.40
2018-05-07T05:25:21.172Z,11.40
2018-05-07T05:27:48.695Z,11.50
2018-05-07T05:30:16.225Z,11.50
2018-05-07T05:32:43.740Z,11.60
2018-05-07T05:35:11.271Z,11.50
2018-05-07T05:37:38.815Z,11.50
2018-05-07T05:40:06.334Z,11.60
2018-05-07T05:42:33.871Z,11.70
2018-05-07T05:45:01.436Z,11.90
2018-05-07T05:47:28.955Z,12.10
2018-05-07T05:49:56.530Z,12.30
2018-05-07T05:52:24.099Z,12.50
2018-05-07T05:54:52.395Z,12.70
2018-05-07T05:57:19.940Z,12.60
2018-05-07T05:59:47.469Z,12.80
2018-05-07T06:02:15.023Z,12.80
2018-05-07T06:04:44.116Z,12.90
2018-05-07T06:07:11.632Z,12.90
2018-05-07T06:09:39.164Z,13.10
2018-05-07T06:12:07.487Z,13.20
2018-05-07T06:14:35.081Z,13.20
2018-05-07T06:17:02.543Z,13.30
2018-05-07T06:19:30.058Z,13.30
2018-05-07T06:21:57.573Z,13.40
2018-05-07T06:24:25.860Z,13.60
2018-05-07T06:26:54.009Z,13.60
2018-05-07T06:29:21.550Z,13.70
2018-05-07T06:31:49.091Z,13.60
2018-05-07T06:34:16.622Z,13.60
2018-05-07T06:36:44.127Z,13.70
2018-05-07T06:39:11.655Z,13.80
2018-05-07T06:41:39.237Z,13.90
2018-05-07T06:44:06.773Z,14.20
2018-05-07T06:46:34.326Z,14.20
2018-05-07T06:49:01.891Z,14.20
2018-05-07T06:51:29.499Z,14.40
2018-05-07T06:53:57.049Z,14.60
2018-05-07T06:56:24.589Z,14.70
2018-05-07T06:58:52.098Z,14.90
2018-05-07T07:01:19.661Z,15.60
2018-05-07T07:03:47.183Z,16.00
2018-05-07T07:06:14.697Z,16.30
2018-05-07T07:08:43.012Z,16.70
2018-05-07T07:11:10.517Z,16.70
2018-05-07T07:13:38.044Z,16.80
2018-05-07T07:16:05.590Z,17.00
2018-05-07T07:18:33.113Z,17.00
2018-05-07T07:21:00.656Z,17.20
2018-05-07T07:23:28.207Z,17.30
2018-05-07T07:25:55.757Z,17.40
2018-05-07T07:28:23.282Z,17.50
2018-05-07T07:30:50.819Z,17.60
2018-05-07T07:33:18.363Z,17.80
2018-05-07T07:35:45.880Z,18.00
2018-05-07T07:38:14.214Z,18.20
2018-05-07T07:40:41.750Z,18.20
2018-05-07T07:43:09.698Z,18.30
2018-05-07T07:45:37.279Z,18.20
2018-05-07T07:48:04.819Z,18.60
2018-05-07T07:50:33.095Z,18.80
2018-05-07T07:53:01.387Z,18.80
2018-05-07T07:55:28.931Z,18.80
2018-05-07T07:57:56.482Z,18.70
2018-05-07T08:00:24.054Z,19.30
2018-05-07T08:02:51.564Z,19.50
2018-05-07T08:05:19.079Z,19.50
2018-05-07T08:07:46.607Z,19.50
2018-05-07T08:10:14.133Z,19.60
2018-05-07T08:12:41.684Z,19.60
2018-05-07T08:15:09.194Z,19.70
2018-05-07T08:17:36.730Z,19.70
2018-05-07T08:20:04.240Z,19.70
2018-05-07T08:22:31.739Z,20.00
2018-05-07T08:24:59.243Z,20.10
2018-05-07T08:27:26.749Z,20.00
2018-05-07T08:29:54.244Z,20.40
2018-05-07T08:32:22.511Z,20.70
2018-05-07T08:34:50.814Z,21.00
2018-05-07T08:37:18.340Z,21.00
2018-05-07T08:39:45.871Z,21.10
2018-05-07T08:42:13.416Z,20.80
2018-05-07T08:44:40.957Z,21.20
2018-05-07T08:47:08.490Z,21.20
2018-05-07T08:49:36.001Z,21.00
2018-05-07T08:52:03.537Z,21.10
2018-05-07T08:54:31.071Z,21.10
2018-05-07T08:56:59.332Z,21.40
2018-05-07T08:59:27.601Z,21.70
2018-05-07T09:01:55.922Z,21.50
2018-05-07T09:04:23.454Z,21.50
2018-05-07T09:06:50.965Z,21.50
2018-05-07T09:09:18.475Z,21.80
2018-05-07T09:11:46.001Z,21.90
2018-05-07T09:14:13.517Z,21.90
2018-05-07T09:16:41.018Z,22.10
2018-05-07T09:19:09.303Z,22.50
2018-05-07T09:21:37.613Z,22.40
2018-05-07T09:24:05.158Z,22.40
2018-05-07T09:26:32.662Z,22.60
2018-05-07T09:29:00.205Z,21.90
2018-05-07T09:31:27.786Z,22.30
2018-05-07T09:33:55.311Z,22.30
2018-05-07T09:36:22.854Z,22.30
2018-05-07T09:38:50.387Z,22.60
2018-05-07T09:41:17.918Z,22.60
2018-05-07T09:43:45.425Z,22.80
2018-05-07T09:46:13.691Z,22.60
2018-05-07T09:48:41.205Z,22.60
2018-05-07T09:51:08.698Z,23.40
2018-05-07T09:53:36.308Z,23.40
2018-05-07T09:56:03.843Z,23.10
2018-05-07T09:58:31.377Z,23.00
2018-05-07T10:00:58.890Z,23.50
2018-05-07T10:03:26.392Z,23.70
2018-05-07T10:05:53.927Z,23.70
2018-05-07T10:08:21.457Z,24.00
2018-05-07T10:10:48.989Z,24.00
2018-05-07T10:13:16.501Z,23.80
2018-05-07T10:15:44.020Z,23.70
2018-05-07T10:18:11.565Z,23.30
2018-05-07T10:23:13.037Z,23.20
2018-05-07T10:25:40.579Z,23.60
2018-05-07T10:28:08.112Z,23.90
2018-05-07T10:30:35.706Z,23.90
2018-05-07T10:33:03.217Z,23.70
2018-05-07T10:35:30.728Z,23.70
2018-05-07T10:37:58.240Z,23.90
2018-05-07T10:40:25.859Z,24.30
2018-05-07T10:42:53.326Z,24.50
2018-05-07T10:45:20.837Z,24.50
2018-05-07T10:47:49.878Z,24.60
2018-05-07T10:50:17.381Z,24.60
2018-05-07T10:52:44.952Z,24.60
2018-05-07T10:55:13.250Z,24.20
2018-05-07T10:57:40.790Z,24.20
2018-05-07T11:00:08.298Z,24.40
2018-05-07T11:02:35.830Z,24.60
2018-05-07T11:05:03.341Z,24.70
2018-05-07T11:07:30.933Z,24.90
2018-05-07T11:09:58.381Z,24.50
2018-05-07T11:12:26.669Z,24.80
2018-05-07T11:14:54.931Z,24.70
2018-05-07T11:17:22.465Z,24.60
2018-05-07T11:19:50.039Z,24.90
2018-05-07T11:22:17.515Z,24.50
2018-05-07T11:24:45.828Z,24.80
2018-05-07T11:27:13.351Z,24.80
2018-05-07T11:29:40.874Z,24.70
2018-05-07T11:32:08.391Z,24.80
2018-05-07T11:34:35.910Z,24.80
2018-05-07T11:37:03.436Z,24.60
2018-05-07T11:39:30.978Z,24.80
2018-05-07T11:41:58.504Z,24.90
2018-05-07T11:44:26.006Z,24.80
2018-05-07T11:46:53.541Z,24.80
2018-05-07T11:49:21.030Z,25.20
2018-05-07T11:51:48.540Z,25.10
2018-05-07T11:54:16.061Z,25.30
2018-05-07T11:56:43.589Z,25.10
2018-05-07T11:59:11.125Z,25.10
2018-05-07T12:01:38.660Z,24.70
2018-05-07T12:04:06.927Z,25.00
2018-05-07T12:06:34.443Z,25.00
2018-05-07T12:09:02.080Z,25.10
2018-05-07T12:11:29.544Z,25.30
2018-05-07T12:13:57.076Z,25.40
2018-05-07T12:16:24.662Z,25.30
2018-05-07T12:18:52.177Z,24.90
2018-05-07T12:21:19.682Z,25.30
2018-05-07T12:23:47.197Z,25.50
2018-05-07T12:26:14.735Z,24.70
2018-05-07T12:28:42.244Z,24.30
2018-05-07T12:31:09.868Z,25.30
2018-05-07T12:33:37.318Z,25.90
2018-05-07T12:36:04.913Z,25.70
2018-05-07T12:38:32.600Z,25.70
2018-05-07T12:41:00.110Z,25.30
2018-05-07T12:43:27.632Z,25.30
2018-05-07T12:45:55.148Z,25.50
2018-05-07T12:48:22.684Z,25.70
2018-05-07T12:50:50.212Z,25.70
2018-05-07T12:53:17.767Z,25.60
2018-05-07T12:55:45.302Z,25.80
2018-05-07T12:58:12.842Z,25.50
2018-05-07T13:00:41.114Z,25.20
2018-05-07T13:03:08.661Z,25.20
2018-05-07T13:05:36.168Z,24.80
2018-05-07T13:08:03.675Z,24.40
2018-05-07T13:10:31.994Z,25.00
2018-05-07T13:12:59.521Z,25.00
2018-05-07T13:15:27.063Z,25.30
2018-05-07T13:17:55.396Z,25.20
2018-05-07T13:20:22.917Z,25.20
2018-05-07T13:22:50.430Z,25.00
2018-05-07T13:25:17.970Z,25.00
2018-05-07T13:27:45.489Z,25.00
2018-05-07T13:30:13.018Z,25.10
2018-05-07T13:32:40.552Z,25.00
2018-05-07T13:35:08.076Z,24.90
2018-05-07T13:37:35.620Z,24.90
2018-05-07T13:40:03.951Z,24.80
2018-05-07T13:42:31.462Z,24.80
2018-05-07T13:44:59.003Z,24.90
2018-05-07T13:47:27.308Z,24.80
2018-05-07T13:49:54.842Z,24.80
2018-05-07T13:52:23.165Z,24.90
2018-05-07T13:54:50.692Z,24.90
2018-05-07T13:57:18.996Z,25.20
2018-05-07T13:59:46.540Z,25.10
2018-05-07T14:02:14.055Z,24.80
2018-05-07T14:04:41.611Z,24.90
2018-05-07T14:07:09.176Z,24.80
2018-05-07T14:09:36.722Z,25.00
2018-05-07T14:12:04.283Z,24.80
2018-05-07T14:14:31.840Z,24.90
2018-05-07T14:16:59.343Z,24.90
2018-05-07T14:19:26.855Z,25.00
2018-05-07T14:21:54.374Z,24.90
2018-05-07T14:24:21.913Z,24.90
2018-05-07T14:26:49.462Z,24.80
2018-05-07T14:29:17.748Z,24.70
2018-05-07T14:31:46.218Z,24.70
2018-05-07T14:34:14.540Z,24.80
2018-05-07T14:36:42.085Z,24.80
2018-05-07T14:39:09.644Z,24.80
2018-05-07T14:41:37.235Z,24.90
2018-05-07T14:44:04.755Z,24.90
2018-05-07T14:46:32.267Z,24.80
2018-05-07T14:48:59.804Z,24.90
2018-05-07T14:51:27.346Z,24.80
2018-05-07T14:53:54.887Z,24.80
2018-05-07T14:56:22.423Z,24.70
2018-05-07T14:58:50.752Z,24.80
2018-05-07T15:01:18.262Z,24.80
2018-05-07T15:03:45.814Z,24.80
2018-05-07T15:06:14.145Z,24.90
2018-05-07T15:08:41.697Z,24.90
2018-05-07T15:11:09.213Z,24.70
2018-05-07T15:13:37.558Z,24.90
2018-05-07T15:16:05.035Z,24.90
2018-05-07T15:18:32.539Z,25.00
2018-05-07T15:21:00.058Z,24.90
2018-05-07T15:23:27.610Z,24.80
2018-05-07T15:25:55.116Z,24.90
2018-05-07T15:30:56.594Z,24.90
2018-05-07T15:33:24.158Z,25.00
2018-05-07T15:35:51.669Z,24.90
2018-05-07T15:38:19.213Z,24.80
2018-05-07T15:40:47.595Z,24.90
2018-05-07T15:45:49.802Z,24.90
2018-05-07T15:48:18.083Z,25.00
2018-05-07T15:50:45.606Z,25.00
2018-05-07T15:53:13.122Z,25.00
2018-05-07T15:55:40.631Z,24.80
2018-05-07T15:58:08.159Z,24.80
2018-05-07T16:00:35.706Z,24.90
2018-05-07T16:03:03.343Z,24.80
2018-05-07T16:05:30.804Z,24.80
2018-05-07T16:07:58.305Z,24.90
2018-05-07T16:10:25.848Z,24.80
2018-05-07T16:12:53.364Z,24.80
2018-05-07T16:15:20.901Z,24.80
2018-05-07T16:17:48.414Z,24.70
2018-05-07T16:20:16.007Z,24.70
2018-05-07T16:22:43.524Z,24.70
2018-05-07T16:25:11.069Z,24.80
2018-05-07T16:27:38.635Z,24.80
2018-05-07T16:30:06.184Z,24.80
2018-05-07T16:32:33.699Z,24.80
2018-05-07T16:35:01.227Z,25.00
2018-05-07T16:37:28.755Z,25.20
2018-05-07T16:39:56.355Z,25.50
2018-05-07T16:42:23.864Z,25.50
2018-05-07T16:44:51.411Z,25.40
2018-05-07T16:47:19.727Z,24.90
2018-05-07T16:49:47.283Z,25.00
2018-05-07T16:52:14.833Z,24.90
2018-05-07T16:54:42.388Z,24.80
2018-05-07T16:57:09.940Z,24.70
2018-05-07T16:59:38.248Z,24.60
2018-05-07T17:02:05.771Z,24.60
2018-05-07T17:04:34.099Z,24.60
2018-05-07T17:07:01.676Z,24.60
2018-05-07T17:09:29.243Z,24.60
2018-05-07T17:11:56.795Z,24.50
2018-05-07T17:14:24.348Z,24.50
2018-05-07T17:16:51.915Z,24.50
2018-05-07T17:19:19.508Z,24.50
2018-05-07T17:21:47.806Z,24.60
2018-05-07T17:24:15.425Z,24.50
2018-05-07T17:26:42.973Z,24.40
2018-05-07T17:29:10.541Z,24.40
2018-05-07T17:31:38.108Z,24.50
2018-05-07T17:34:05.778Z,24.50
2018-05-07T17:36:34.954Z,24.30
2018-05-07T17:39:02.494Z,24.30
2018-05-07T17:41:30.558Z,24.20
2018-05-07T17:47:09.773Z,24.20
2018-05-07T17:49:38.128Z,24.20
2018-05-07T17:52:05.657Z,24.10
2018-05-07T17:54:33.206Z,24.00
2018-05-07T17:57:00.764Z,23.90
2018-05-07T17:59:28.271Z,23.80
2018-05-07T18:04:29.775Z,23.70
2018-05-07T18:06:57.308Z,23.60
2018-05-07T18:09:24.874Z,23.50
2018-05-07T18:11:53.192Z,23.40
2018-05-07T18:14:20.748Z,23.40
2018-05-07T18:16:48.269Z,23.30
2018-05-07T18:19:16.553Z,23.00
2018-05-07T18:21:44.104Z,23.00
2018-05-07T18:24:11.731Z,22.80
2018-05-07T18:26:39.268Z,22.70
2018-05-07T18:29:06.798Z,22.50
2018-05-07T18:31:34.310Z,22.30
2018-05-07T18:34:01.863Z,22.20
2018-05-07T18:36:29.425Z,22.00
2018-05-07T18:38:56.961Z,21.80
2018-05-07T18:41:24.509Z,21.70
2018-05-07T18:43:52.822Z,21.40
2018-05-07T18:46:20.355Z,21.40
2018-05-07T18:48:47.900Z,21.30
2018-05-07T18:51:15.445Z,21.20
2018-05-07T18:53:42.988Z,21.10
2018-05-07T18:56:11.273Z,20.50
2018-05-07T18:58:38.802Z,20.50
2018-05-07T19:01:07.093Z,20.00
2018-05-07T19:03:34.650Z,20.00
2018-05-07T19:06:02.934Z,19.70
2018-05-07T19:08:31.222Z,19.70
2018-05-07T19:10:58.789Z,19.70
2018-05-07T19:13:26.359Z,19.70
2018-05-07T19:15:53.887Z,19.80
2018-05-07T19:18:21.412Z,19.70
2018-05-07T19:20:48.924Z,19.50
2018-05-07T19:23:16.474Z,19.40
2018-05-07T19:25:44.038Z,19.30
2018-05-07T19:28:12.272Z,19.10
2018-05-07T19:30:39.806Z,19.00
2018-05-07T19:33:07.352Z,18.90
2018-05-07T19:35:34.869Z,18.70
2018-05-07T19:38:03.197Z,18.60
2018-05-07T19:40:30.761Z,18.70
2018-05-07T19:42:58.284Z,18.50
2018-05-07T19:45:25.810Z,18.40
2018-05-07T19:47:53.439Z,18.30
2018-05-07T19:50:20.972Z,18.30
2018-05-07T19:52:48.507Z,18.40
2018-05-07T19:55:16.819Z,17.80
2018-05-07T19:57:44.347Z,17.80
2018-05-07T20:00:11.982Z,17.60
2018-05-07T20:02:39.508Z,17.80
2018-05-07T20:05:07.032Z,17.80
2018-05-07T20:07:34.592Z,17.50
2018-05-07T20:10:02.141Z,17.40
2018-05-07T20:12:29.678Z,17.40
2018-05-07T20:14:57.199Z,17.30
2018-05-07T20:17:24.759Z,17.30
2018-05-07T20:19:52.374Z,17.20
2018-05-07T20:22:19.889Z,17.30
2018-05-07T20:24:47.403Z,16.90
2018-05-07T20:27:14.928Z,16.70
2018-05-07T20:29:42.470Z,16.70
2018-05-07T20:32:10.006Z,16.50
2018-05-07T20:34:37.526Z,16.40
2018-05-07T20:37:05.073Z,16.50
2018-05-07T20:39:32.621Z,16.40
2018-05-07T20:42:00.951Z,16.20
2018-05-07T20:44:28.547Z,16.20
2018-05-07T20:46:56.101Z,16.20
2018-05-07T20:49:23.647Z,16.20
2018-05-07T20:51:51.168Z,16.20
2018-05-07T20:54:19.454Z,16.00
2018-05-07T20:56:47.006Z,16.00
2018-05-07T20:59:14.578Z,15.60
2018-05-07T21:01:42.147Z,15.70
2018-05-07T21:04:09.695Z,15.70
2018-05-07T21:06:37.209Z,15.70
2018-05-07T21:09:04.777Z,15.80
2018-05-07T21:11:32.319Z,15.80
2018-05-07T21:13:59.868Z,15.70
2018-05-07T21:16:28.078Z,15.60
2018-05-07T21:18:56.383Z,15.30
2018-05-07T21:21:23.940Z,15.30
2018-05-07T21:23:51.463Z,15.40
2018-05-07T21:26:19.012Z,15.30
2018-05-07T21:28:46.557Z,15.20
2018-05-07T21:31:14.108Z,15.20
2018-05-07T21:33:41.660Z,15.30
2018-05-07T21:36:09.186Z,15.20
2018-05-07T21:38:37.475Z,15.20
2018-05-07T21:41:05.038Z,15.20
2018-05-07T21:43:32.567Z,15.30
2018-05-07T21:46:00.857Z,15.20
2018-05-07T21:48:29.169Z,15.10
2018-05-07T21:50:56.687Z,15.10
2018-05-07T21:53:24.235Z,15.10
2018-05-07T21:55:52.548Z,15.00
2018-05-07T21:58:20.104Z,14.90
2018-05-07T22:00:47.621Z,14.80
2018-05-07T22:03:15.173Z,14.60
2018-05-07T22:05:42.731Z,14.50
2018-05-07T22:08:10.279Z,14.60
2018-05-07T22:10:37.820Z,14.50
2018-05-07T22:13:05.330Z,14.50
2018-05-07T22:15:32.955Z,14.40
2018-05-07T22:18:00.429Z,14.60
2018-05-07T22:20:27.967Z,14.40
2018-05-07T22:22:55.482Z,14.60
2018-05-07T22:25:23.754Z,14.50
2018-05-07T22:27:52.063Z,14.50
2018-05-07T22:30:19.619Z,14.40
2018-05-07T22:32:47.167Z,14.40
2018-05-07T22:35:14.691Z,14.20
2018-05-07T22:37:42.995Z,14.20
2018-05-07T22:40:10.540Z,14.20
2018-05-07T22:42:39.532Z,14.20
2018-05-07T22:45:07.066Z,14.20
2018-05-07T22:47:34.583Z,14.20
2018-05-07T22:50:02.122Z,14.10
2018-05-07T22:52:29.635Z,14.30
2018-05-07T22:55:18.049Z,14.30
2018-05-07T22:57:45.807Z,14.20
2018-05-07T23:00:14.168Z,14.20
2018-05-07T23:02:41.719Z,14.10
2018-05-07T23:05:09.263Z,14.20
2018-05-07T23:07:36.815Z,14.30
2018-05-07T23:10:04.354Z,14.30
2018-05-07T23:12:31.900Z,14.30
2018-05-07T23:14:59.425Z,14.50
2018-05-07T23:17:26.939Z,14.30
2018-05-07T23:19:54.506Z,14.40
2018-05-07T23:22:22.027Z,14.40
2018-05-07T23:24:50.231Z,14.30
2018-05-07T23:27:17.757Z,14.30
2018-05-07T23:29:45.304Z,14.20
2018-05-07T23:32:12.864Z,14.20
2018-05-07T23:34:40.415Z,14.30
2018-05-07T23:37:07.959Z,14.30
2018-05-07T23:39:35.518Z,14.30
2018-05-07T23:42:03.024Z,14.30
2018-05-07T23:44:30.550Z,14.20
2018-05-07T23:46:58.064Z,14.20
2018-05-07T23:49:27.118Z,14.10
2018-05-07T23:51:54.651Z,14.10
2018-05-07T23:54:22.162Z,14.10
2018-05-07T23:56:49.699Z,14.20
2018-05-07T23:59:17.249Z,14.10
